AirNav   TITAN Aviation Fuels
 
 866 users online  

FD32 Gac Waterfront Heliport
Navarre, Florida, USA

GOING TO NAVARRE?


FAA INFORMATION EFFECTIVE 17 JUNE 2021

Location

FAA Identifier: FD32
Lat/Long: 30-24-02.2000N 086-51-37.9000W
30-24.036667N 086-51.631667W
30.4006111,-86.8605278
(estimated)
Elevation: 6 ft. / 2 m (estimated)
From city: 3 miles SE of NAVARRE, FL
Time zone: UTC -5 (UTC -6 during Standard Time)
Zip code: 32566

Heliport Operations

Heliport use: Private use. Permission required prior to landing
Activation date: 07/2017
Control tower: no
ARTCC: JACKSONVILLE CENTER
FSS: GAINESVILLE FLIGHT SERVICE STATION
Attendance: 
Wind indicator: yes
Segmented circle: no

Heliport Communications

WX ASOS at PNS (17 nm W): 121.25 (850-436-4799)
WX ASOS at NDZ (20 nm NW): PHONE 850-623-7210

Nearby radio navigation aids

VOR radial/distance  VOR name  Freq  Var
NUNr099/(25.0)SAUFLEY VOR108.8001E
CEWr197/27.2CRESTVIEW VORTAC115.9003E

 
NDB name  Hdg/Dist  Freq  Var  ID
PICKENS100/16.632602WPKZ .--. -.- --..

Heliport Services

Runway Information

Helipad H1

Dimensions: 36 x 36 ft. / 11 x 11 m
Surface: concrete, in excellent condition
Latitude: 30-24.036667N
Longitude: 086-51.631667W
Elevation: 6.0 ft.
Traffic pattern: leftleft

Heliport Ownership and Management from official FAA records

Ownership: Privately-owned
Owner: GAC PROPERTY MANAGEMENT LLC
2078 BAHAMA DR.
NAVARRE, FL 32566
Phone 850-685-9801
Manager: GREG BRITTON
2078 BAHAMA DR.
NAVARRE, FL 32566
Phone 850-685-9801

Heliport Operational Statistics

Aircraft based on the field: 1
Helicopters: 1
    

Additional Remarks

FOR CD CTC PENSACOLA APCH AT 850-266-6884 OR 850-266-6885.

Instrument Procedures

There are no published instrument procedures at FD32.

Some nearby airports with instrument procedures:

KHRT - Hurlburt Field Airport (9 nm E)
2R4 - Peter Prince Field Airport (16 nm NW)
KPNS - Pensacola International Airport (17 nm W)
KVPS - Eglin Air Force Base/Destin-Fort Walton Beach Airport (18 nm E)
KNDZ - Whiting Field Naval Air Station South (20 nm NW)
 
Loc | Ops | Rwys | IFR | FBO | Links
Com | Nav | Svcs | Stats | Notes
Aerial photo
No photo
 
Airport distance calculator
Flying to Gac Waterfront Heliport? Find the distance to fly.

From to FD32

Sunrise and sunset
Times for 21-Jun-2021
 Local
(UTC-5)
 Zulu
(UTC)
Morning civil twilight05:1910:19
Sunrise05:4710:47
Sunset19:5200:52
Evening civil twilight20:1901:19

Current date and time
Zulu (UTC)  22-Jun-2021 03:35:37
Local (UTC-5)  21-Jun-2021 22:35:37
 
METAR
KHRT 
10nm E 
220305Z 17008KT 10SM -DZ BKN010 BKN017 OVC028 26/24 A2996 RMK AO2A DZB00 CIG 009V028 BKN010 V SCT SLPNO $
KPNS 
17nm W 
220319Z 30006G19KT 3/4SM VCTS +RA BR BKN016 OVC034 23/22 A3001 RMK AO2 PK WND 33029/0303 LTG DSNT N RAB0257 PRESRR P0089 T02280222 RVRNO
KVPS 
18nm E 
220318Z AUTO 17009KT 10SM -RA FEW010 SCT110 26/23 A2996 RMK AO2 RAB18 SLPNO FZRANO TSNO $
KNDZ 
20nm NW 
220256Z 17003KT 9SM FEW013 SCT037 BKN070 26/25 A2997 RMK AO2 RAB24E40 SLP133 T2 SET P0000 60000 T02560250 53001 $
TAF
KHRT 
10nm E 
220200Z 2202/2308 17010G15KT 9999 VCSH SCT010 BKN130 QNH2996INS TEMPO 2202/2204 BKN010 BECMG 2203/2204 20012KT 8000 SHRA BKN009 OVC100 QNH2992INS BECMG 2206/2207 VRB06KT 9999 NSW BKN015 OVC100 QNH2992INS BECMG 2209/2210 22012G20KT 4800 SHRA BKN012CB QNH2993INS TEMPO 2210/2214 1600 TSRA BKN010CB BECMG 2219/2220 22009KT 8000 NSW BKN015 QNH2993INS TX30/2222Z TN22/2210Z
KPNS 
17nm W 
211739Z 2118/2218 36007KT P6SM VCSH FEW012 BKN026 BKN035 TEMPO 2118/2121 4SM TSRA OVC015CB FM212100 19012G20KT P6SM VCTS OVC045CB FM220300 19008KT P6SM VCSH OVC050 FM221200 18003KT P6SM VCTS OVC025CB
KVPS 
18nm E 
220100Z 2201/2307 18010KT 9999 VCSH FEW012 SCT025 BKN130 QNH2996INS BECMG 2201/2202 18012KT 8000 -SHRA SCT015 BKN020 OVC100 QNH2994INS BECMG 2205/2206 19013G18KT 9000 -SHRA VCTS SCT017 BKN025CB QNH2993INS TEMPO 2206/2213 20015G25KT 6000 -TSRA BKN017CB BKN025 BKN040 OVC055 BECMG 2214/2215 21015G20KT 9000 -SHRA BKN015 BKN030 QNH2999INS BECMG 2219/2220 22015G25KT 8000 -SHRA VCTS SCT040CB BKN055 OVC085 QNH3004INS BECMG 2220/2221 23010G15KT 9000 -SHRA SCT040 QNH2995INS BECMG 2301/2302 23008KT 9000 VC
NOTAMs
Click for the latest NOTAMs
NOTAMs are issued by the DoD/FAA and will open in a separate window not controlled by AirNav.

 

 
 

Would you like to see your business listed on this page?

 If your business provides an interesting product or service to pilots, flight crews, aircraft, or users of the Gac Waterfront Heliport, you should consider listing it here.  To start the listing process, click on the button below
 
Add a business
 

Other Pages about Gac Waterfront Heliport

Update a link
 
Copyright © AirNav, LLC. All rights reserved. Privacy Policy  Contact